createdAt,value
2022-11-21T00:01:53.517Z,-3.85
2022-11-21T00:04:23.592Z,-3.82
2022-11-21T00:06:53.693Z,-3.81
2022-11-21T00:09:23.768Z,-3.79
2022-11-21T00:11:53.782Z,-3.79
2022-11-21T00:14:23.890Z,-3.74
2022-11-21T00:16:57.350Z,-3.71
2022-11-21T00:19:27.708Z,-3.67
2022-11-21T00:21:57.759Z,-3.64
2022-11-21T00:24:28.052Z,-3.63
2022-11-21T00:26:58.303Z,-3.59
2022-11-21T00:29:31.174Z,-3.56
2022-11-21T00:32:01.491Z,-3.53
2022-11-21T00:34:31.537Z,-3.52
2022-11-21T00:37:01.563Z,-3.52
2022-11-21T00:39:31.714Z,-3.50
2022-11-21T00:42:01.755Z,-3.50
2022-11-21T00:44:31.822Z,-3.49
2022-11-21T00:47:01.925Z,-3.48
2022-11-21T00:49:32.047Z,-3.44
2022-11-21T00:52:02.428Z,-3.41
2022-11-21T00:54:32.477Z,-3.38
2022-11-21T00:57:02.711Z,-3.36
2022-11-21T00:59:32.839Z,-3.36
2022-11-21T01:02:02.947Z,-3.35
2022-11-21T01:04:35.710Z,-3.30
2022-11-21T01:07:05.763Z,-3.30
2022-11-21T01:09:35.935Z,-3.34
2022-11-21T01:12:07.136Z,-3.34
2022-11-21T01:14:37.319Z,-3.34
2022-11-21T01:17:07.421Z,-3.38
2022-11-21T01:19:37.477Z,-3.38
2022-11-21T01:22:07.560Z,-3.38
2022-11-21T01:24:37.814Z,-3.38
2022-11-21T01:27:07.858Z,-3.39
2022-11-21T01:29:37.858Z,-3.40
2022-11-21T01:32:08.277Z,-3.38
2022-11-21T01:34:38.323Z,-3.38
2022-11-21T01:37:08.456Z,-3.36
2022-11-21T01:39:38.546Z,-3.31
2022-11-21T01:42:14.648Z,-3.33
2022-11-21T01:44:54.507Z,-3.36
2022-11-21T01:47:24.620Z,-3.35
2022-11-21T01:49:54.675Z,-3.36
2022-11-21T01:52:34.132Z,-3.35
2022-11-21T01:55:14.934Z,-3.37
2022-11-21T01:57:49.779Z,-3.40
2022-11-21T02:00:31.947Z,-3.35
2022-11-21T02:03:14.040Z,-3.36
2022-11-21T02:05:44.356Z,-3.37
2022-11-21T02:08:21.376Z,-3.41
2022-11-21T02:11:45.178Z,-3.45
2022-11-21T02:14:16.118Z,-3.46
2022-11-21T02:16:47.304Z,-3.41
2022-11-21T02:20:10.570Z,-3.44
2022-11-21T02:23:39.455Z,-3.42
2022-11-21T02:26:11.443Z,-3.43
2022-11-21T02:28:43.018Z,-3.42
2022-11-21T02:31:13.041Z,-3.43
2022-11-21T02:33:43.317Z,-3.42
2022-11-21T02:36:47.560Z,-3.44
2022-11-21T02:39:33.290Z,-3.38
2022-11-21T02:42:17.062Z,-3.39
2022-11-21T02:45:23.775Z,-3.37
2022-11-21T02:48:02.275Z,-3.35
2022-11-21T02:50:39.935Z,-3.40
2022-11-21T02:53:18.280Z,-3.39
2022-11-21T02:55:48.409Z,-3.32
2022-11-21T02:58:15.909Z,-3.35
2022-11-21T03:00:44.180Z,-3.34
2022-11-21T03:03:16.984Z,-3.34
2022-11-21T03:05:47.026Z,-3.32
2022-11-21T03:08:17.126Z,-3.27
2022-11-21T03:10:46.812Z,-3.27
2022-11-21T03:13:16.564Z,-3.28
2022-11-21T03:15:46.354Z,-3.30
2022-11-21T03:18:16.133Z,-3.31
2022-11-21T03:20:45.846Z,-3.34
2022-11-21T03:23:15.566Z,-3.34
2022-11-21T03:25:45.374Z,-3.35
2022-11-21T03:28:15.119Z,-3.33
2022-11-21T03:30:45.022Z,-3.31
2022-11-21T03:33:14.681Z,-3.26
2022-11-21T03:35:44.439Z,-3.27
2022-11-21T03:38:17.651Z,-3.27
2022-11-21T03:40:47.034Z,-3.32
2022-11-21T03:43:16.863Z,-3.30
2022-11-21T03:45:51.000Z,-3.29
2022-11-21T03:48:18.077Z,-3.29
2022-11-21T03:50:47.786Z,-3.30
2022-11-21T03:53:17.521Z,-3.31
2022-11-21T03:55:47.288Z,-3.30
2022-11-21T03:58:16.989Z,-3.25
2022-11-21T04:00:48.404Z,-3.23
2022-11-21T04:03:18.120Z,-3.23
2022-11-21T04:05:46.673Z,-3.22
2022-11-21T04:08:17.505Z,-3.20
2022-11-21T04:10:53.025Z,-3.21
2022-11-21T04:13:22.289Z,-3.17
2022-11-21T04:15:52.261Z,-3.16
2022-11-21T04:18:20.320Z,-3.13
2022-11-21T04:20:48.853Z,-3.12
2022-11-21T04:23:17.206Z,-3.10
2022-11-21T04:25:45.499Z,-3.12
2022-11-21T04:28:15.105Z,-3.09
2022-11-21T04:30:42.545Z,-3.12
2022-11-21T04:33:14.931Z,-3.13
2022-11-21T04:35:45.375Z,-3.14
2022-11-21T04:38:15.626Z,-3.19
2022-11-21T04:40:45.643Z,-3.24
2022-11-21T04:43:15.781Z,-3.28
2022-11-21T04:45:45.834Z,-3.29
2022-11-21T04:48:15.381Z,-3.30
2022-11-21T04:50:46.808Z,-3.30
2022-11-21T04:53:16.530Z,-3.32
2022-11-21T04:55:46.269Z,-3.33
2022-11-21T04:58:15.990Z,-3.34
2022-11-21T05:00:45.736Z,-3.35
2022-11-21T05:03:15.918Z,-3.37
2022-11-21T05:05:46.495Z,-3.41
2022-11-21T05:08:15.758Z,-3.44
2022-11-21T05:11:07.069Z,-3.47
2022-11-21T05:13:37.095Z,-3.50
2022-11-21T05:16:07.391Z,-3.56
2022-11-21T05:18:37.445Z,-3.62
2022-11-21T05:21:07.490Z,-3.65
2022-11-21T05:23:37.562Z,-3.68
2022-11-21T05:26:07.578Z,-3.69
2022-11-21T05:28:37.656Z,-3.67
2022-11-21T05:31:07.667Z,-3.66
2022-11-21T05:33:37.683Z,-3.65
2022-11-21T05:36:07.819Z,-3.62
2022-11-21T05:38:37.827Z,-3.58
2022-11-21T05:41:07.849Z,-3.55
2022-11-21T05:43:46.937Z,-3.53
2022-11-21T05:46:23.856Z,-3.50
2022-11-21T05:48:54.777Z,-3.47
2022-11-21T05:51:23.532Z,-3.46
2022-11-21T05:53:53.303Z,-3.43
2022-11-21T05:56:23.319Z,-3.42
2022-11-21T05:58:57.155Z,-3.41
2022-11-21T06:01:45.268Z,-3.39
2022-11-21T06:04:15.120Z,-3.38
2022-11-21T06:06:45.876Z,-3.37
2022-11-21T06:09:14.657Z,-3.36
2022-11-21T06:11:44.445Z,-3.34
2022-11-21T06:14:14.030Z,-3.36
2022-11-21T06:16:43.984Z,-3.33
2022-11-21T06:19:13.598Z,-3.30
2022-11-21T06:21:43.445Z,-3.27
2022-11-21T06:24:16.010Z,-3.23
2022-11-21T06:26:46.132Z,-3.20
2022-11-21T06:29:16.922Z,-3.17
2022-11-21T06:31:45.885Z,-3.14
2022-11-21T06:34:14.516Z,-3.13
2022-11-21T06:36:44.787Z,-3.11
2022-11-21T06:39:14.806Z,-3.09
2022-11-21T06:41:51.120Z,-3.05
2022-11-21T06:44:21.427Z,-3.04
2022-11-21T06:46:51.510Z,-2.97
2022-11-21T06:49:22.340Z,-2.95
2022-11-21T06:51:49.752Z,-2.94
2022-11-21T06:54:18.216Z,-2.93
2022-11-21T06:56:46.631Z,-2.93
2022-11-21T06:59:15.032Z,-2.96
2022-11-21T07:01:43.513Z,-2.96
2022-11-21T07:04:12.687Z,-2.95
2022-11-21T07:06:40.432Z,-2.91
2022-11-21T07:09:32.217Z,-2.93
2022-11-21T07:12:19.111Z,-2.91
2022-11-21T07:14:49.276Z,-2.91
2022-11-21T07:17:19.376Z,-2.90
2022-11-21T07:19:49.433Z,-2.89
2022-11-21T07:22:19.504Z,-2.89
2022-11-21T07:24:49.610Z,-2.83
2022-11-21T07:27:19.670Z,-2.82
2022-11-21T07:29:49.837Z,-2.78
2022-11-21T07:32:19.982Z,-2.73
2022-11-21T07:34:50.032Z,-2.72
2022-11-21T07:37:20.471Z,-2.69
2022-11-21T07:39:50.538Z,-2.64
2022-11-21T07:42:20.799Z,-2.59
2022-11-21T07:44:50.844Z,-2.55
2022-11-21T07:47:20.845Z,-2.52
2022-11-21T07:49:50.910Z,-2.49
2022-11-21T07:52:21.043Z,-2.46
2022-11-21T07:54:51.301Z,-2.46
2022-11-21T07:57:21.380Z,-2.41
2022-11-21T07:59:51.504Z,-2.47
2022-11-21T08:02:27.107Z,-2.55
2022-11-21T08:04:57.113Z,-2.60
2022-11-21T08:07:27.285Z,-2.64
2022-11-21T08:09:57.495Z,-2.70
2022-11-21T08:12:27.610Z,-2.72
2022-11-21T08:14:58.187Z,-2.78
2022-11-21T08:17:28.384Z,-2.78
2022-11-21T08:20:00.345Z,-2.73
2022-11-21T08:22:30.445Z,-2.57
2022-11-21T08:25:00.472Z,-2.46
2022-11-21T08:27:30.562Z,-2.28
2022-11-21T08:30:00.608Z,-2.30
2022-11-21T08:32:31.324Z,-2.34
2022-11-21T08:35:02.025Z,-2.23
2022-11-21T08:37:33.301Z,-2.16
2022-11-21T08:40:03.695Z,-2.17
2022-11-21T08:42:38.075Z,-2.16
2022-11-21T08:45:09.151Z,-2.21
2022-11-21T08:47:39.183Z,-2.26
2022-11-21T08:50:09.634Z,-2.47
2022-11-21T08:52:39.678Z,-2.42
2022-11-21T08:55:09.809Z,-2.46
2022-11-21T08:57:41.612Z,-2.44
2022-11-21T09:00:13.830Z,-2.37
2022-11-21T09:02:43.938Z,-2.41
2022-11-21T09:05:14.098Z,-2.49
2022-11-21T09:07:44.347Z,-2.49
2022-11-21T09:10:15.220Z,-2.44
2022-11-21T09:12:43.529Z,-2.43
2022-11-21T09:15:30.643Z,-2.45
2022-11-21T09:18:06.667Z,-2.39
2022-11-21T09:20:44.991Z,-2.46
2022-11-21T09:23:17.454Z,-2.34
2022-11-21T09:25:47.028Z,-2.44
2022-11-21T09:28:15.775Z,-2.39
2022-11-21T09:30:44.298Z,-2.45
2022-11-21T09:33:17.067Z,-2.54
2022-11-21T09:35:48.060Z,-2.46
2022-11-21T09:38:22.555Z,-2.48
2022-11-21T09:41:40.424Z,-2.47
2022-11-21T09:44:37.475Z,-2.43
2022-11-21T09:47:40.875Z,-2.63
2022-11-21T09:50:12.839Z,-2.66
2022-11-21T09:53:11.518Z,-2.54
2022-11-21T09:56:06.393Z,-2.57
2022-11-21T09:58:51.296Z,-2.55
2022-11-21T10:01:21.487Z,-2.53
2022-11-21T10:03:52.757Z,-2.70
2022-11-21T10:06:33.913Z,-2.66
2022-11-21T10:09:51.656Z,-2.70
2022-11-21T10:13:17.409Z,-2.67
2022-11-21T10:17:08.613Z,-2.62
2022-11-21T10:20:40.180Z,-2.72
2022-11-21T10:23:24.734Z,-2.67
2022-11-21T10:26:42.167Z,-2.72
2022-11-21T10:29:11.998Z,-2.70
2022-11-21T10:31:43.992Z,-2.70
2022-11-21T10:34:38.479Z,-2.64
2022-11-21T10:37:39.840Z,-2.60
2022-11-21T10:40:45.946Z,-2.83
2022-11-21T10:43:57.993Z,-2.86
2022-11-21T10:46:28.036Z,-2.78
2022-11-21T10:49:08.589Z,-2.79
2022-11-21T10:52:12.850Z,-2.80
2022-11-21T10:55:04.662Z,-2.71
2022-11-21T10:57:52.759Z,-2.70
2022-11-21T11:00:28.083Z,-2.91
2022-11-21T11:03:07.277Z,-2.95
2022-11-21T11:05:39.170Z,-2.88
2022-11-21T11:08:15.315Z,-2.89
2022-11-21T11:11:08.240Z,-2.79
2022-11-21T11:14:02.007Z,-2.84
2022-11-21T11:16:41.439Z,-2.86
2022-11-21T11:19:14.647Z,-2.92
2022-11-21T11:21:47.044Z,-2.95
2022-11-21T11:24:17.534Z,-2.92
2022-11-21T11:26:48.640Z,-2.90
2022-11-21T11:29:25.925Z,-2.99
2022-11-21T11:31:59.775Z,-2.91
2022-11-21T11:35:03.151Z,-2.85
2022-11-21T11:37:42.967Z,-2.92
2022-11-21T11:40:44.085Z,-2.87
2022-11-21T11:44:12.017Z,-2.88
2022-11-21T11:47:18.548Z,-2.82
2022-11-21T11:50:17.029Z,-2.89
2022-11-21T11:53:01.572Z,-2.80
2022-11-21T11:56:05.306Z,-2.74
2022-11-21T11:59:13.085Z,-2.80
2022-11-21T12:02:03.040Z,-2.77
2022-11-21T12:05:15.247Z,-2.77
2022-11-21T12:11:59.631Z,-2.57
2022-11-21T12:16:01.732Z,-2.50
2022-11-21T12:19:07.989Z,-2.57
2022-11-21T12:21:38.142Z,-2.66
2022-11-21T12:24:12.307Z,-2.73
2022-11-21T12:27:16.623Z,-2.71
2022-11-21T12:30:54.037Z,-2.68
2022-11-21T12:33:24.928Z,-2.69
2022-11-21T12:36:49.524Z,-2.63
2022-11-21T12:39:53.436Z,-2.54
2022-11-21T12:43:07.068Z,-2.56
2022-11-21T12:46:02.530Z,-2.54
2022-11-21T12:50:06.241Z,-2.53
2022-11-21T12:53:49.695Z,-2.56
2022-11-21T12:56:56.557Z,-2.48
2022-11-21T12:59:30.820Z,-2.37
2022-11-21T13:02:34.205Z,-2.35
2022-11-21T13:05:24.846Z,-2.33
2022-11-21T13:08:24.750Z,-2.28
2022-11-21T13:12:00.209Z,-2.34
2022-11-21T13:15:19.389Z,-2.34
2022-11-21T13:18:24.370Z,-2.31
2022-11-21T13:20:54.514Z,-2.28
2022-11-21T13:23:43.015Z,-2.18
2022-11-21T13:26:24.812Z,-2.22
2022-11-21T13:29:16.543Z,-2.28
2022-11-21T13:31:44.038Z,-2.23
2022-11-21T13:34:46.677Z,-2.21
2022-11-21T13:38:02.924Z,-2.30
2022-11-21T13:41:00.865Z,-2.28
2022-11-21T13:43:34.184Z,-2.28
2022-11-21T13:46:05.028Z,-2.25
2022-11-21T13:49:20.967Z,-2.30
2022-11-21T13:51:55.869Z,-2.43
2022-11-21T13:54:40.660Z,-2.43
2022-11-21T13:58:07.757Z,-2.33
2022-11-21T14:00:56.297Z,-2.23
2022-11-21T14:04:17.005Z,-2.02
2022-11-21T14:06:45.807Z,-2.06
2022-11-21T14:09:48.191Z,-1.93
2022-11-21T14:12:44.523Z,-2.28
2022-11-21T14:15:47.182Z,-2.47
2022-11-21T14:18:26.790Z,-2.38
2022-11-21T14:21:04.704Z,-2.33
2022-11-21T14:23:43.123Z,-2.27
2022-11-21T14:26:21.433Z,-2.19
2022-11-21T14:28:52.740Z,-2.39
2022-11-21T14:31:22.829Z,-2.46
2022-11-21T14:33:58.439Z,-2.47
2022-11-21T14:36:31.674Z,-2.50
2022-11-21T14:42:16.345Z,-2.45
2022-11-21T14:44:46.432Z,-2.42
2022-11-21T14:47:26.571Z,-2.43
2022-11-21T14:50:02.294Z,-2.42
2022-11-21T14:52:34.562Z,-2.60
2022-11-21T14:55:31.736Z,-2.70
2022-11-21T14:58:06.329Z,-2.68
2022-11-21T15:01:03.539Z,-2.61
2022-11-21T15:03:24.390Z,-2.60
2022-11-21T15:06:07.316Z,-2.61
2022-11-21T15:12:03.608Z,-2.48
2022-11-21T15:15:00.697Z,-2.38
2022-11-21T15:17:32.314Z,-2.47
2022-11-21T15:20:22.466Z,-2.49
2022-11-21T15:22:58.986Z,-2.54
2022-11-21T15:25:47.453Z,-2.55
2022-11-21T15:28:19.108Z,-2.52
2022-11-21T15:30:46.359Z,-2.55
2022-11-21T15:33:19.159Z,-2.56
2022-11-21T15:35:57.866Z,-2.62
2022-11-21T15:38:47.161Z,-2.66
2022-11-21T15:41:16.755Z,-2.64
2022-11-21T15:43:55.213Z,-2.63
2022-11-21T15:46:33.012Z,-2.63
2022-11-21T15:49:31.537Z,-2.68
2022-11-21T15:52:07.117Z,-2.73
2022-11-21T15:54:39.032Z,-2.74
2022-11-21T15:57:10.221Z,-2.82
2022-11-21T15:59:40.264Z,-2.95
2022-11-21T16:02:14.660Z,-3.04
2022-11-21T16:04:44.167Z,-3.11
2022-11-21T16:07:14.030Z,-3.16
2022-11-21T16:09:45.984Z,-3.17
2022-11-21T16:12:18.780Z,-3.25
2022-11-21T16:14:48.857Z,-3.30
2022-11-21T16:17:19.001Z,-3.34
2022-11-21T16:19:49.570Z,-3.37
2022-11-21T16:22:28.321Z,-3.42
2022-11-21T16:24:58.371Z,-3.45
2022-11-21T16:27:28.498Z,-3.49
2022-11-21T16:29:58.509Z,-3.55
2022-11-21T16:32:28.776Z,-3.60
2022-11-21T16:34:59.262Z,-3.65
2022-11-21T16:37:32.756Z,-3.69
2022-11-21T16:40:00.749Z,-3.73
2022-11-21T16:42:28.465Z,-3.79
2022-11-21T16:44:55.953Z,-3.79
2022-11-21T16:47:24.447Z,-3.84
2022-11-21T16:49:52.995Z,-3.90
2022-11-21T16:52:22.497Z,-3.91
2022-11-21T16:54:50.829Z,-3.96
2022-11-21T16:57:19.193Z,-3.90
2022-11-21T16:59:47.804Z,-3.91
2022-11-21T17:02:16.179Z,-3.89
2022-11-21T17:04:44.573Z,-3.90
2022-11-21T17:07:13.115Z,-3.89
2022-11-21T17:09:41.414Z,-3.83
2022-11-21T17:12:16.660Z,-3.83
2022-11-21T17:14:45.404Z,-3.83
2022-11-21T17:17:14.281Z,-3.71
2022-11-21T17:19:44.568Z,-3.65
2022-11-21T17:22:14.355Z,-3.61
2022-11-21T17:24:42.097Z,-3.57
2022-11-21T17:27:11.765Z,-3.57
2022-11-21T17:29:41.608Z,-3.59
2022-11-21T17:32:11.318Z,-3.55
2022-11-21T17:34:41.522Z,-3.48
2022-11-21T17:37:11.131Z,-3.44
2022-11-21T17:39:41.369Z,-3.36
2022-11-21T17:42:12.528Z,-3.38
2022-11-21T17:44:42.219Z,-3.39
2022-11-21T17:47:11.982Z,-3.31
2022-11-21T17:49:41.845Z,-3.29
2022-11-21T17:52:11.828Z,-3.19
2022-11-21T17:54:39.376Z,-3.22
2022-11-21T17:57:07.456Z,-3.31
2022-11-21T17:59:38.890Z,-3.35
2022-11-21T18:02:09.213Z,-3.37
2022-11-21T18:04:39.176Z,-3.34
2022-11-21T18:07:09.133Z,-3.33
2022-11-21T18:09:38.863Z,-3.35
2022-11-21T18:12:12.996Z,-3.30
2022-11-21T18:14:43.868Z,-3.20
2022-11-21T18:17:12.794Z,-3.18
2022-11-21T18:19:42.639Z,-3.22
2022-11-21T18:22:10.334Z,-3.31
2022-11-21T18:24:40.164Z,-3.31
2022-11-21T18:27:10.063Z,-3.36
2022-11-21T18:29:39.867Z,-3.37
2022-11-21T18:32:09.622Z,-3.39
2022-11-21T18:34:39.334Z,-3.41
2022-11-21T18:37:09.132Z,-3.42
2022-11-21T18:39:39.017Z,-3.43
2022-11-21T18:42:13.669Z,-3.43
2022-11-21T18:44:43.174Z,-3.47
2022-11-21T18:47:20.067Z,-3.50
2022-11-21T18:49:48.889Z,-3.56
2022-11-21T18:52:17.101Z,-3.56
2022-11-21T18:54:47.033Z,-3.35
2022-11-21T18:57:17.175Z,-3.41
2022-11-21T18:59:47.118Z,-3.42
2022-11-21T19:02:17.283Z,-3.42
2022-11-21T19:04:47.087Z,-3.41
2022-11-21T19:07:16.889Z,-3.37
2022-11-21T19:09:46.704Z,-3.36
2022-11-21T19:12:17.722Z,-3.35
2022-11-21T19:14:50.254Z,-3.33
2022-11-21T19:17:18.655Z,-3.32
2022-11-21T19:19:48.581Z,-3.30
2022-11-21T19:22:18.770Z,-3.27
2022-11-21T19:24:48.620Z,-3.16
2022-11-21T19:27:24.341Z,-3.08
2022-11-21T19:29:55.345Z,-3.13
2022-11-21T19:32:25.357Z,-3.19
2022-11-21T19:34:55.202Z,-3.07
2022-11-21T19:37:25.100Z,-3.09
2022-11-21T19:39:54.804Z,-3.16
2022-11-21T19:42:25.104Z,-2.99
2022-11-21T19:44:54.953Z,-3.03
2022-11-21T19:47:26.826Z,-3.03
2022-11-21T19:49:56.862Z,-3.00
2022-11-21T19:52:28.226Z,-2.95
2022-11-21T19:54:58.383Z,-2.77
2022-11-21T19:57:29.231Z,-2.89
2022-11-21T19:59:59.260Z,-2.98
2022-11-21T20:02:30.682Z,-2.98
2022-11-21T20:05:01.078Z,-2.98
2022-11-21T20:07:34.332Z,-2.93
2022-11-21T20:10:10.100Z,-2.87
2022-11-21T20:12:39.659Z,-2.92
2022-11-21T20:15:10.301Z,-2.97
2022-11-21T20:17:37.904Z,-3.01
2022-11-21T20:20:07.949Z,-3.03
2022-11-21T20:22:39.562Z,-3.07
2022-11-21T20:25:08.278Z,-3.05
2022-11-21T20:27:36.265Z,-3.10
2022-11-21T20:30:05.763Z,-3.14
2022-11-21T20:32:35.988Z,-3.20
2022-11-21T20:35:06.075Z,-3.20
2022-11-21T20:37:35.274Z,-3.24
2022-11-21T20:40:06.077Z,-3.27
2022-11-21T20:42:35.061Z,-3.25
2022-11-21T20:47:53.918Z,-3.32
2022-11-21T20:51:01.401Z,-3.31
2022-11-21T20:56:07.494Z,-3.22
2022-11-21T20:58:43.488Z,-3.24
2022-11-21T21:01:19.242Z,-3.16
2022-11-21T21:03:48.321Z,-3.18
2022-11-21T21:06:17.689Z,-3.18
2022-11-21T21:08:48.261Z,-3.08
2022-11-21T21:14:13.024Z,-3.17
2022-11-21T21:16:43.933Z,-3.16
2022-11-21T21:19:12.596Z,-3.16
2022-11-21T21:21:42.336Z,-3.05
2022-11-21T21:24:13.939Z,-3.04
2022-11-21T21:26:48.191Z,-3.01
2022-11-21T21:29:21.483Z,-3.01
2022-11-21T21:31:52.588Z,-3.01
2022-11-21T21:34:23.861Z,-2.99
2022-11-21T21:36:53.421Z,-2.98
2022-11-21T21:39:21.779Z,-2.99
2022-11-21T21:41:50.287Z,-3.02
2022-11-21T21:44:19.845Z,-3.05
2022-11-21T21:46:47.307Z,-3.07
2022-11-21T21:49:16.043Z,-3.07
2022-11-21T21:51:44.158Z,-3.09
2022-11-21T21:54:21.926Z,-3.08
2022-11-21T21:56:50.928Z,-3.12
2022-11-21T21:59:21.534Z,-3.11
2022-11-21T22:01:51.740Z,-2.98
2022-11-21T22:04:21.425Z,-3.10
2022-11-21T22:06:51.193Z,-3.09
2022-11-21T22:09:21.799Z,-3.16
2022-11-21T22:11:51.238Z,-3.20
2022-11-21T22:14:21.126Z,-3.25
2022-11-21T22:16:52.100Z,-3.22
2022-11-21T22:19:21.950Z,-3.33
2022-11-21T22:21:51.993Z,-3.49
2022-11-21T22:24:26.646Z,-3.56
2022-11-21T22:26:55.213Z,-3.54
2022-11-21T22:29:22.719Z,-3.58
2022-11-21T22:31:52.713Z,-3.48
2022-11-21T22:34:22.812Z,-3.34
2022-11-21T22:36:51.950Z,-3.44
2022-11-21T22:39:20.234Z,-3.55
2022-11-21T22:41:48.810Z,-3.64
2022-11-21T22:44:17.420Z,-3.62
2022-11-21T22:46:46.700Z,-3.58
2022-11-21T22:49:15.151Z,-3.66
2022-11-21T22:51:45.057Z,-3.66
2022-11-21T22:54:13.023Z,-3.73
2022-11-21T22:56:41.091Z,-3.76
2022-11-21T22:59:13.962Z,-3.79
2022-11-21T23:01:41.989Z,-3.86
2022-11-21T23:04:14.694Z,-3.60
2022-11-21T23:06:47.585Z,-3.81
2022-11-21T23:09:17.381Z,-3.83
2022-11-21T23:11:47.261Z,-3.79
2022-11-21T23:14:18.013Z,-3.87
2022-11-21T23:16:46.831Z,-3.67
2022-11-21T23:19:16.832Z,-3.76
2022-11-21T23:21:49.050Z,-3.75
2022-11-21T23:24:16.536Z,-3.89
2022-11-21T23:26:45.934Z,-3.95
2022-11-21T23:29:15.628Z,-3.90
2022-11-21T23:31:45.382Z,-3.98
2022-11-21T23:34:15.164Z,-3.82
2022-11-21T23:36:43.705Z,-3.76
2022-11-21T23:39:11.669Z,-3.86
2022-11-21T23:41:40.969Z,-3.68
2022-11-21T23:44:10.749Z,-3.83
2022-11-21T23:46:40.569Z,-3.68
2022-11-21T23:49:10.648Z,-3.65
2022-11-21T23:51:40.229Z,-3.67
2022-11-21T23:54:09.961Z,-3.67
2022-11-21T23:56:39.581Z,-3.74
2022-11-21T23:59:09.223Z,-3.80
